Airfield :
LOGIN :

Register | Disclaimer

   EN    FR    IT 

 










Legend :    VFR   Marginal VFR   IFR   Intensive IFR   Very Intensive IFR
Visi :
Ceiling :
>= 8 km
>= 3000ft
5 to 8 km
1000 to 3000 ft
1500m to 5 km
500 to 1000 ft
800 to 1500m
200 to 500 ft
< 800m
< 200 ft
Symbols :   Thunderstorms  Fog  Heavy snow  Heavy precipitations  Wind > 20 kt
SIGMETs :     Misc.  Thunderstorms  Icing  Turbulence  Mountain Waves  Volcanic Ashes







- Airport Elevation : 166 ft
- IATA code : SZW


EDOP - Schwerin Parchim

CURRENT METAR :
  • 281550Z 24009KT 9999 FEW046 SCT090 18/14 Q1011

EXPIRED METARs :
  • 281520Z 24005KT 210V280 CAVOK 18/12 Q1010
  • 281450Z 20006KT 150V240 9999 FEW049 SCT098 18/14 Q1010
  • 281420Z 25007KT 9999 -SHRA FEW051CB SCT062 BKN082 16/13 Q1010
  • 281350Z 27008KT 9999 SCT028CB BKN064 16/13 Q1010 RETS

TAF TAF EDOP
Valid from the 28 at 06:00 until the 29 at 06:00 UTC


280500Z 2806/2906 23005KT 9999 SCT020
BECMG 2806/2809 25012KT
TEMPO 2809/2818 26015G25KT SHRA BKN020TCU
PROB30
TEMPO 2810/2816 28020G35KT TSRA BKN020CB
BECMG 2819/2822 22007KT
No reported NOTAMs for that airfield.



MET'MAP, your aeronautical weather chart ! - Copyright ORBIFLY December 2007 - Disclaimer

ORBIFLY MET'MAP TEAM :

Programming & Development : Alexandra Zaïnal
Concept & Development : Baudouin d'Aumeries
Co-Development & Prog : Marc-Olivier Méhu
Technical & hardware support : Manuel Goepfert

Contact : metmap@orbifly.com




SOURCES & CREDITS :

   NOAA